Time;durP1;ratioP1;P1;durP2;ratioP2;P2;SDS_P1;SDS_P2;PMS_P1;PMS_P2;Temp;Humidity;BMP_temperature;BMP_pressure;BME280_temperature;BME280_humidity;BME280_pressure;Samples;Min_cycle;Max_cycle;Signal;HPM_P1;HPM_P2
2021/01/18 00:01:47;;;;;;;21.27;11.60;;;3.10;98.00;;;;;;5006564;28;20228;-78
2021/01/18 00:04:13;;;;;;;20.67;12.77;;;3.10;98.00;;;;;;5006836;28;20200;-77
2021/01/18 00:06:40;;;;;;;25.42;11.90;;;3.10;97.90;;;;;;4990479;28;20261;-79
2021/01/18 00:09:06;;;;;;;19.27;12.32;;;3.10;98.20;;;;;;4991620;28;20322;-79
2021/01/18 00:11:33;;;;;;;19.73;12.00;;;3.10;97.70;;;;;;5007481;28;20209;-78
2021/01/18 00:13:59;;;;;;;20.52;12.23;;;3.00;97.60;;;;;;5008223;28;20236;-78
2021/01/18 00:16:27;;;;;;;20.00;11.70;;;3.00;97.90;;;;;;4994011;28;20251;-81
2021/01/18 00:18:53;;;;;;;20.13;12.50;;;3.10;97.90;;;;;;4994716;28;20213;-78
2021/01/18 00:21:19;;;;;;;21.15;12.27;;;3.00;98.00;;;;;;5008795;28;20193;-79
2021/01/18 00:23:46;;;;;;;26.98;14.35;;;3.10;98.10;;;;;;4993991;28;20202;-77
2021/01/18 00:26:12;;;;;;;18.75;12.52;;;3.10;98.00;;;;;;4977123;28;20209;-77
2021/01/18 00:28:40;;;;;;;19.08;11.55;;;3.10;97.90;;;;;;4993337;28;20216;-79
2021/01/18 00:31:07;;;;;;;21.25;11.60;;;3.10;97.90;;;;;;5003186;28;20376;-77
2021/01/18 00:33:34;;;;;;;22.05;11.82;;;3.00;97.70;;;;;;4987990;28;20229;-77
2021/01/18 00:36:01;;;;;;;21.50;12.18;;;3.10;97.80;;;;;;4985031;28;20645;-77
2021/01/18 00:38:27;;;;;;;24.98;13.60;;;3.10;97.70;;;;;;5008174;28;20231;-77
2021/01/18 00:40:54;;;;;;;22.50;12.55;;;3.00;97.40;;;;;;5009297;28;20220;-80
2021/01/18 00:43:20;;;;;;;21.70;11.77;;;3.00;97.60;;;;;;4985956;28;20220;-79
2021/01/18 00:45:46;;;;;;;20.50;12.85;;;3.00;97.80;;;;;;4990258;28;20288;-78
2021/01/18 00:48:14;;;;;;;20.73;12.02;;;3.00;97.70;;;;;;4977464;28;20488;-77
2021/01/18 00:50:41;;;;;;;22.13;13.32;;;3.00;97.80;;;;;;4977643;28;20288;-79
2021/01/18 00:53:08;;;;;;;25.83;13.35;;;3.10;97.90;;;;;;4979042;28;20221;-78
2021/01/18 00:55:34;;;;;;;23.05;11.13;;;3.10;97.90;;;;;;4992582;28;20240;-79
2021/01/18 00:58:01;;;;;;;19.23;12.52;;;3.10;97.80;;;;;;4998530;28;20233;-77
2021/01/18 01:00:29;;;;;;;26.17;13.32;;;3.10;97.40;;;;;;4980215;28;20217;-77
2021/01/18 01:02:57;;;;;;;24.88;12.40;;;3.10;97.30;;;;;;4977007;28;20206;-78
2021/01/18 01:05:25;;;;;;;20.60;12.38;;;3.10;97.00;;;;;;4982081;28;20269;-79
2021/01/18 01:07:54;;;;;;;21.20;11.68;;;3.10;96.80;;;;;;4980540;28;20249;-78
2021/01/18 01:10:22;;;;;;;22.77;12.52;;;3.20;96.80;;;;;;4997094;28;20568;-80
2021/01/18 01:12:54;;;;;;;22.45;13.07;;;3.20;96.20;;;;;;4996370;28;20260;-77
2021/01/18 01:15:20;;;;;;;20.10;13.20;;;3.20;96.20;;;;;;5004830;28;20224;-78
2021/01/18 01:17:47;;;;;;;14.57;10.45;;;3.10;96.20;;;;;;4992502;28;20271;-77
2021/01/18 01:20:15;;;;;;;26.05;13.25;;;3.10;96.20;;;;;;4992946;28;20240;-77
2021/01/18 01:22:41;;;;;;;22.40;13.38;;;3.10;96.20;;;;;;4987419;28;20259;-77
2021/01/18 01:25:10;;;;;;;23.50;12.20;;;3.10;96.20;;;;;;4975889;28;20209;-78
2021/01/18 01:27:37;;;;;;;22.48;11.70;;;3.10;96.20;;;;;;4992456;28;20224;-79
2021/01/18 01:30:05;;;;;;;20.90;12.32;;;3.00;96.20;;;;;;4988672;28;20209;-77
2021/01/18 01:32:31;;;;;;;19.52;11.50;;;3.00;96.20;;;;;;4997380;28;20245;-76
2021/01/18 01:34:58;;;;;;;20.38;12.43;;;3.00;96.20;;;;;;4994519;28;20204;-77
2021/01/18 01:37:24;;;;;;;19.92;13.23;;;3.00;96.70;;;;;;4975048;28;20265;-77
2021/01/18 01:39:51;;;;;;;24.02;11.98;;;3.00;96.80;;;;;;4982193;28;20226;-77
2021/01/18 01:42:20;;;;;;;21.95;12.15;;;3.00;96.80;;;;;;4998242;28;20272;-77
2021/01/18 01:44:46;;;;;;;21.75;12.20;;;3.00;96.90;;;;;;4991953;28;20232;-77
2021/01/18 01:47:24;;;;;;;24.45;12.65;;;2.90;97.10;;;;;;4979362;28;20324;-78
2021/01/18 01:49:51;;;;;;;18.70;12.85;;;2.90;97.10;;;;;;4974317;28;20206;-77
2021/01/18 01:52:18;;;;;;;27.08;13.43;;;3.00;97.20;;;;;;4974511;28;20681;-76
2021/01/18 01:54:50;;;;;;;20.58;12.32;;;2.90;97.10;;;;;;4973824;28;20206;-77
2021/01/18 01:57:17;;;;;;;23.00;12.55;;;2.90;97.30;;;;;;4973570;28;20593;-77
2021/01/18 01:59:44;;;;;;;25.48;13.00;;;2.90;97.50;;;;;;4971585;28;20223;-77
2021/01/18 02:02:11;;;;;;;23.65;12.90;;;2.90;97.50;;;;;;4975108;28;20658;-77
2021/01/18 02:04:38;;;;;;;22.13;11.70;;;2.90;97.60;;;;;;4984541;28;20778;-79
2021/01/18 02:07:23;;;;;;;20.55;12.30;;;2.90;97.70;;;;;;4998469;28;20237;-78
2021/01/18 02:09:49;;;;;;;25.95;12.00;;;2.90;97.40;;;;;;4995450;28;20197;-78
2021/01/18 02:12:16;;;;;;;22.73;12.23;;;3.00;97.60;;;;;;4996105;28;20601;-77
2021/01/18 02:15:02;;;;;;;22.88;12.93;;;2.90;97.20;;;;;;4995544;28;20232;-78
2021/01/18 02:17:40;;;;;;;20.13;12.40;;;2.90;97.20;;;;;;4995108;28;20597;-77
2021/01/18 02:20:28;;;;;;;22.05;12.18;;;3.00;97.40;;;;;;4987242;28;20217;-77
2021/01/18 02:23:24;;;;;;;22.40;12.30;;;3.00;97.20;;;;;;4974110;28;20213;-77
2021/01/18 02:25:53;;;;;;;24.00;11.35;;;3.00;97.10;;;;;;4987732;28;20669;-77
2021/01/18 02:28:27;;;;;;;24.58;11.77;;;3.00;97.10;;;;;;4992516;28;20286;-76
2021/01/18 02:31:38;;;;;;;22.70;12.30;;;3.00;97.20;;;;;;4979242;28;20781;-76
2021/01/18 02:34:49;;;;;;;23.92;11.10;;;3.00;96.80;;;;;;4950630;28;20233;-77
2021/01/18 02:37:46;;;;;;;19.13;11.15;;;3.00;96.60;;;;;;4971908;28;20764;-78
2021/01/18 02:40:22;;;;;;;22.13;11.70;;;3.00;96.20;;;;;;4975686;28;20206;-78
2021/01/18 02:42:54;;;;;;;19.73;10.63;;;3.10;96.20;;;;;;4973814;28;20229;-77
2021/01/18 02:45:22;;;;;;;20.33;11.25;;;3.00;96.10;;;;;;4988358;28;20225;-78
2021/01/18 02:47:50;;;;;;;22.63;11.45;;;3.00;95.80;;;;;;4991394;28;20266;-78
2021/01/18 02:50:17;;;;;;;29.05;11.95;;;3.00;95.70;;;;;;4993449;28;20221;-78
2021/01/18 02:52:44;;;;;;;26.48;11.82;;;3.00;95.60;;;;;;4994241;28;20247;-78
2021/01/18 02:55:12;;;;;;;25.95;12.68;;;3.00;95.40;;;;;;5001016;28;20243;-76
2021/01/18 02:57:40;;;;;;;23.90;11.07;;;3.00;95.30;;;;;;5003635;28;20322;-78
2021/01/18 03:00:11;;;;;;;18.30;10.88;;;3.00;95.30;;;;;;4994247;28;20350;-76
2021/01/18 03:02:46;;;;;;;19.55;11.15;;;3.00;95.30;;;;;;4992747;28;20204;-78
2021/01/18 03:05:35;;;;;;;21.83;11.27;;;3.00;95.10;;;;;;4997105;28;20610;-76
2021/01/18 03:08:12;;;;;;;19.98;10.85;;;3.00;94.80;;;;;;4996887;28;20228;-77
2021/01/18 03:10:42;;;;;;;20.10;11.20;;;3.00;94.60;;;;;;4995908;28;20203;-78
2021/01/18 03:13:16;;;;;;;21.77;10.20;;;3.00;94.40;;;;;;4994638;28;20244;-77
2021/01/18 03:15:46;;;;;;;21.85;11.98;;;3.00;94.50;;;;;;5013947;28;20201;-80
2021/01/18 03:18:16;;;;;;;18.85;11.45;;;2.90;94.50;;;;;;4985615;28;20263;-77
2021/01/18 03:20:44;;;;;;;21.15;10.25;;;2.90;94.60;;;;;;4975382;28;20233;-76
2021/01/18 03:23:12;;;;;;;27.35;11.30;;;3.00;94.40;;;;;;4974764;28;20292;-76
2021/01/18 03:25:50;;;;;;;17.30;10.15;;;3.00;94.20;;;;;;4973106;28;20214;-77
2021/01/18 03:28:17;;;;;;;16.70;10.15;;;3.00;94.10;;;;;;4972769;28;20232;-78
2021/01/18 03:30:44;;;;;;;19.42;10.15;;;3.00;93.90;;;;;;4973720;28;20217;-77
2021/01/18 03:33:11;;;;;;;17.08;9.95;;;3.00;93.80;;;;;;4974452;28;20717;-76
2021/01/18 03:35:38;;;;;;;20.15;11.05;;;3.00;93.60;;;;;;4973247;28;20217;-77
2021/01/18 03:38:05;;;;;;;19.55;10.20;;;3.00;93.50;;;;;;4974110;28;20243;-77
2021/01/18 03:40:32;;;;;;;16.15;9.88;;;3.00;93.20;;;;;;4994418;28;20231;-78
2021/01/18 03:43:08;;;;;;;19.70;10.77;;;3.00;93.10;;;;;;4997536;28;20236;-78
2021/01/18 03:45:37;;;;;;;15.02;9.80;;;3.00;93.00;;;;;;4980689;28;20256;-77
2021/01/18 03:48:04;;;;;;;18.65;10.82;;;3.00;92.90;;;;;;4979073;28;20232;-79
2021/01/18 03:50:31;;;;;;;18.23;11.10;;;3.00;92.90;;;;;;4977459;28;20244;-78
2021/01/18 03:52:57;;;;;;;17.83;9.55;;;3.00;92.70;;;;;;4975492;28;20275;-78
2021/01/18 03:55:24;;;;;;;18.67;10.23;;;3.00;92.90;;;;;;4978661;28;20564;-77
2021/01/18 03:57:53;;;;;;;20.83;9.63;;;3.10;92.70;;;;;;4977300;28;20677;-77
2021/01/18 04:00:22;;;;;;;17.98;10.20;;;3.10;92.70;;;;;;4977623;28;20288;-78
2021/01/18 04:02:51;;;;;;;20.05;9.98;;;3.10;92.70;;;;;;4977053;28;20209;-78
2021/01/18 04:05:17;;;;;;;16.05;9.85;;;3.10;92.70;;;;;;4979157;28;20220;-77
2021/01/18 04:07:45;;;;;;;16.40;10.10;;;3.10;92.30;;;;;;4991853;28;20352;-77
2021/01/18 04:10:13;;;;;;;18.00;10.10;;;3.10;92.00;;;;;;4996723;28;20687;-77
2021/01/18 04:12:40;;;;;;;19.08;10.13;;;3.10;92.30;;;;;;4998219;28;20449;-79
2021/01/18 04:15:11;;;;;;;15.60;10.05;;;3.10;91.70;;;;;;4999032;28;20212;-78
2021/01/18 04:17:40;;;;;;;17.13;9.00;;;3.20;91.50;;;;;;4993806;23;20234;-80
2021/01/18 04:20:08;;;;;;;20.02;9.35;;;3.20;91.30;;;;;;4954090;29;20215;-80
2021/01/18 04:22:35;;;;;;;14.02;8.73;;;3.20;91.10;;;;;;4942602;29;20629;-80
2021/01/18 04:25:02;;;;;;;23.00;9.07;;;3.20;90.90;;;;;;4942425;29;20238;-82
2021/01/18 04:27:29;;;;;;;14.52;8.48;;;3.20;90.60;;;;;;4945612;29;20246;-80
2021/01/18 04:40:11;;;;;;;14.70;9.43;;;3.10;90.00;;;;;;4895269;29;20281;-81
2021/01/18 04:49:09;;;;;;;13.52;7.75;;;3.20;90.00;;;;;;5002561;28;20227;-80
2021/01/18 04:51:43;;;;;;;15.77;8.38;;;3.20;90.00;;;;;;4999904;28;20213;-80
2021/01/18 04:54:30;;;;;;;14.55;7.22;;;3.10;90.10;;;;;;5001748;28;20208;-80
2021/01/18 05:00:23;;;;;;;12.60;7.50;;;3.20;89.70;;;;;;4939505;23;20222;-78
2021/01/18 05:02:53;;;;;;;14.15;8.32;;;3.20;89.60;;;;;;4954903;28;20203;-78
2021/01/18 05:05:28;;;;;;;12.73;8.20;;;3.10;89.50;;;;;;4955478;29;20237;-78
2021/01/18 05:08:21;;;;;;;13.60;7.28;;;3.10;90.00;;;;;;4954666;28;20217;-80
2021/01/18 05:10:51;;;;;;;20.33;7.80;;;3.10;89.50;;;;;;4969533;28;20240;-77
2021/01/18 05:13:19;;;;;;;15.18;7.95;;;3.10;89.50;;;;;;4980719;28;20229;-78
2021/01/18 05:15:49;;;;;;;12.63;8.35;;;3.10;89.00;;;;;;4976933;28;20648;-81
2021/01/18 05:18:15;;;;;;;18.52;8.05;;;3.10;89.60;;;;;;4985404;28;20276;-78
2021/01/18 05:20:42;;;;;;;21.38;9.15;;;3.10;89.60;;;;;;4988384;28;20233;-78
2021/01/18 05:23:08;;;;;;;19.92;8.02;;;3.10;89.80;;;;;;4990079;28;20208;-81
2021/01/18 05:25:36;;;;;;;16.40;8.48;;;3.00;90.10;;;;;;4995542;28;20207;-80
2021/01/18 05:28:07;;;;;;;14.93;8.30;;;3.10;90.30;;;;;;4987657;28;20205;-78
2021/01/18 05:30:35;;;;;;;17.35;9.90;;;3.00;89.90;;;;;;4987634;28;20530;-79
2021/01/18 05:33:05;;;;;;;13.80;8.40;;;3.10;90.20;;;;;;4986323;28;20238;-79
2021/01/18 05:35:32;;;;;;;19.80;8.98;;;3.10;90.00;;;;;;4984114;28;20220;-78
2021/01/18 05:38:05;;;;;;;21.85;8.50;;;3.00;90.00;;;;;;4975843;28;20212;-78
2021/01/18 05:40:35;;;;;;;20.60;8.52;;;3.00;90.10;;;;;;4978059;28;20225;-78
2021/01/18 05:43:02;;;;;;;23.35;9.05;;;3.00;90.30;;;;;;4977650;28;20227;-78
2021/01/18 05:45:31;;;;;;;14.15;8.13;;;3.00;90.40;;;;;;4973614;28;20204;-76
2021/01/18 05:47:59;;;;;;;15.45;9.32;;;3.00;90.50;;;;;;4963716;28;20262;-78
2021/01/18 05:50:27;;;;;;;13.13;8.30;;;3.00;90.70;;;;;;4976892;28;20224;-76
2021/01/18 05:52:54;;;;;;;19.17;8.60;;;3.00;90.60;;;;;;4975005;28;20206;-76
2021/01/18 05:55:24;;;;;;;18.88;8.73;;;2.90;90.60;;;;;;4976116;28;20216;-78
2021/01/18 05:57:53;;;;;;;15.77;8.75;;;3.00;90.80;;;;;;4976154;28;20202;-78
2021/01/18 06:00:33;;;;;;;23.08;9.20;;;2.90;91.20;;;;;;4976320;28;20229;-77
2021/01/18 06:03:01;;;;;;;16.58;8.20;;;2.90;91.00;;;;;;4974019;28;20300;-77
2021/01/18 06:05:30;;;;;;;13.95;8.35;;;2.90;91.30;;;;;;4974351;28;20213;-78
2021/01/18 06:08:15;;;;;;;13.73;8.10;;;2.90;91.40;;;;;;4973945;28;20224;-77
2021/01/18 06:10:42;;;;;;;18.30;9.25;;;2.90;91.20;;;;;;4973586;28;20373;-78
2021/01/18 06:13:23;;;;;;;16.80;8.63;;;2.90;91.30;;;;;;4972802;28;20757;-78
2021/01/18 06:15:53;;;;;;;18.23;9.15;;;2.90;91.40;;;;;;4973770;28;20674;-79
2021/01/18 06:18:22;;;;;;;11.55;8.20;;;2.90;91.60;;;;;;4972961;28;20229;-78
2021/01/18 06:20:57;;;;;;;25.92;9.68;;;2.90;91.60;;;;;;4973771;28;20311;-80
2021/01/18 06:23:23;;;;;;;24.17;9.50;;;2.90;91.80;;;;;;4986413;28;20296;-78
2021/01/18 06:25:52;;;;;;;12.02;7.85;;;2.90;92.00;;;;;;4983904;28;20286;-79
2021/01/18 06:28:26;;;;;;;13.27;8.07;;;2.90;92.20;;;;;;4976813;28;20581;-78
2021/01/18 06:30:57;;;;;;;15.25;8.68;;;2.90;92.20;;;;;;4972169;28;21021;-78
2021/01/18 06:33:36;;;;;;;21.00;10.25;;;2.90;92.30;;;;;;4972182;28;20229;-75
2021/01/18 06:36:12;;;;;;;17.88;9.00;;;3.00;92.00;;;;;;4971924;28;20209;-77
2021/01/18 06:38:40;;;;;;;22.10;8.80;;;2.90;91.90;;;;;;4972998;28;20237;-78
2021/01/18 06:41:07;;;;;;;19.67;8.88;;;2.90;92.10;;;;;;4972497;28;20253;-78
2021/01/18 06:43:34;;;;;;;18.45;9.13;;;2.90;92.20;;;;;;4974291;28;20232;-78
2021/01/18 06:46:13;;;;;;;18.77;9.05;;;2.90;92.30;;;;;;4973198;28;20210;-77
2021/01/18 06:48:40;;;;;;;16.45;8.80;;;3.00;92.30;;;;;;4973056;28;20573;-78
2021/01/18 06:51:14;;;;;;;15.73;8.13;;;2.90;92.10;;;;;;4973335;28;20221;-77
2021/01/18 06:53:42;;;;;;;22.17;9.10;;;3.00;92.20;;;;;;4973586;28;20592;-78
2021/01/18 06:56:48;;;;;;;16.55;8.80;;;3.00;92.10;;;;;;4972421;28;20259;-76
2021/01/18 06:59:34;;;;;;;18.65;11.30;;;3.00;92.00;;;;;;4970526;28;20213;-77
2021/01/18 07:02:21;;;;;;;18.42;9.02;;;3.00;91.50;;;;;;4974069;28;20241;-77
2021/01/18 07:04:49;;;;;;;17.13;9.15;;;3.00;91.30;;;;;;4974317;28;20259;-78
2021/01/18 07:07:24;;;;;;;19.40;9.45;;;3.00;91.60;;;;;;4961196;28;20572;-77
2021/01/18 07:09:56;;;;;;;15.77;9.23;;;3.10;91.50;;;;;;4967775;28;20299;-76
2021/01/18 07:12:24;;;;;;;17.40;8.85;;;3.00;91.50;;;;;;4972764;28;20193;-78
2021/01/18 07:14:57;;;;;;;12.05;7.78;;;3.10;91.60;;;;;;4975185;28;20239;-78
2021/01/18 07:17:36;;;;;;;11.40;8.20;;;3.10;91.40;;;;;;4976195;28;20244;-77
2021/01/18 07:20:08;;;;;;;18.40;8.57;;;3.10;90.90;;;;;;4976070;28;20863;-78
2021/01/18 07:22:44;;;;;;;18.00;9.40;;;3.20;90.90;;;;;;4976589;28;20205;-77
2021/01/18 07:25:13;;;;;;;26.35;9.07;;;3.20;90.50;;;;;;4975915;28;20257;-78
2021/01/18 07:27:44;;;;;;;15.55;7.85;;;3.30;90.50;;;;;;4976603;28;20296;-79
2021/01/18 07:30:11;;;;;;;20.27;9.43;;;3.30;90.10;;;;;;4976373;28;20288;-78
2021/01/18 07:32:38;;;;;;;14.50;8.60;;;3.30;90.10;;;;;;4976854;28;20210;-77
2021/01/18 07:35:05;;;;;;;19.10;8.82;;;3.30;90.10;;;;;;4977514;28;20221;-78
2021/01/18 07:37:32;;;;;;;16.50;9.15;;;3.30;90.00;;;;;;4976977;28;20289;-77
2021/01/18 07:40:10;;;;;;;14.98;8.65;;;3.30;90.10;;;;;;4976711;28;20256;-78
2021/01/18 07:42:38;;;;;;;14.20;8.60;;;3.40;89.90;;;;;;4976336;28;20576;-78
2021/01/18 07:45:13;;;;;;;12.10;8.77;;;3.40;89.70;;;;;;4976292;28;20201;-77
2021/01/18 07:48:04;;;;;;;16.17;8.55;;;3.40;88.60;;;;;;4978403;28;20234;-78
2021/01/18 07:50:32;;;;;;;16.05;9.93;;;3.40;89.00;;;;;;4977991;28;20240;-78
2021/01/18 07:52:58;;;;;;;13.25;9.68;;;3.40;88.60;;;;;;4979236;28;20292;-78
2021/01/18 07:55:26;;;;;;;18.88;10.10;;;3.40;89.00;;;;;;4978317;28;20409;-78
2021/01/18 07:57:52;;;;;;;16.35;9.43;;;3.40;88.30;;;;;;4977100;28;20249;-78
2021/01/18 08:00:32;;;;;;;14.57;8.10;;;3.50;89.10;;;;;;4977772;28;20233;-79
2021/01/18 08:03:23;;;;;;;18.05;9.57;;;3.50;88.40;;;;;;4980456;28;20217;-77
2021/01/18 08:05:52;;;;;;;18.33;9.48;;;3.60;88.40;;;;;;4988385;28;20224;-81
2021/01/18 08:08:26;;;;;;;21.38;9.40;;;3.50;88.00;;;;;;4993256;28;20209;-79
2021/01/18 08:10:58;;;;;;;15.48;8.20;;;3.50;87.70;;;;;;4971719;28;20292;-78
2021/01/18 08:13:40;;;;;;;19.73;9.15;;;3.50;87.10;;;;;;4971354;28;20237;-79
2021/01/18 08:16:14;;;;;;;18.08;9.02;;;3.50;87.50;;;;;;4984907;28;20638;-79
2021/01/18 08:19:08;;;;;;;15.05;8.75;;;3.50;87.40;;;;;;4985689;28;20243;-79
2021/01/18 08:21:59;;;;;;;18.27;8.70;;;3.50;87.70;;;;;;4989843;28;20237;-78
2021/01/18 08:24:51;;;;;;;14.15;8.77;;;3.50;88.40;;;;;;4984768;28;20258;-79
2021/01/18 08:27:35;;;;;;;20.17;9.52;;;3.50;88.40;;;;;;4989091;28;20240;-80
2021/01/18 08:30:14;;;;;;;12.65;8.43;;;3.50;88.40;;;;;;4983609;28;20304;-80
2021/01/18 08:32:42;;;;;;;16.23;9.40;;;3.60;87.50;;;;;;4985629;28;20240;-78
2021/01/18 08:35:21;;;;;;;18.55;8.50;;;3.50;87.20;;;;;;4981906;28;20690;-78
2021/01/18 08:38:00;;;;;;;12.80;7.75;;;3.50;87.40;;;;;;4982217;28;20216;-79
2021/01/18 08:40:42;;;;;;;15.93;8.80;;;3.60;87.30;;;;;;4979188;28;20233;-78
2021/01/18 08:43:09;;;;;;;18.80;8.68;;;3.60;88.00;;;;;;4979472;28;20233;-78
2021/01/18 08:45:39;;;;;;;18.55;8.85;;;3.60;87.50;;;;;;4980742;28;20228;-77
2021/01/18 08:48:08;;;;;;;15.23;8.18;;;3.60;86.50;;;;;;4982498;28;20367;-79
2021/01/18 08:50:42;;;;;;;13.13;8.57;;;3.60;86.90;;;;;;4991046;28;20245;-81
2021/01/18 08:53:32;;;;;;;16.27;8.32;;;3.60;87.20;;;;;;4995244;28;20216;-80
2021/01/18 08:56:04;;;;;;;17.30;7.72;;;3.60;87.50;;;;;;4989621;28;20224;-79
2021/01/18 08:58:35;;;;;;;18.25;9.15;;;3.60;88.40;;;;;;4985258;28;20643;-79
2021/01/18 09:01:04;;;;;;;12.43;7.50;;;3.70;88.50;;;;;;4987447;28;20233;-80
2021/01/18 09:03:30;;;;;;;14.15;8.23;;;3.70;87.30;;;;;;4989700;28;20214;-82
2021/01/18 09:05:59;;;;;;;9.43;6.80;;;3.70;86.90;;;;;;4993049;28;20236;-79
2021/01/18 09:08:27;;;;;;;13.40;7.32;;;3.70;85.70;;;;;;4990442;28;20197;-79
2021/01/18 09:10:55;;;;;;;17.88;8.82;;;3.70;85.60;;;;;;4991257;28;20276;-80
2021/01/18 09:13:23;;;;;;;10.43;7.45;;;3.70;85.50;;;;;;4989913;28;20267;-80
2021/01/18 09:15:54;;;;;;;13.57;8.90;;;3.90;85.70;;;;;;4991466;28;20213;-82
2021/01/18 09:18:22;;;;;;;12.85;7.47;;;3.80;85.20;;;;;;4993424;28;20213;-82
2021/01/18 09:20:50;;;;;;;8.57;6.55;;;4.00;84.00;;;;;;4990437;28;20290;-81
2021/01/18 09:23:17;;;;;;;12.32;7.32;;;3.90;82.50;;;;;;4986693;28;20205;-84
2021/01/18 09:25:44;;;;;;;15.73;7.72;;;4.00;81.90;;;;;;4984175;28;20205;-80
2021/01/18 09:28:12;;;;;;;14.23;8.10;;;4.00;81.90;;;;;;4985275;28;20304;-81
2021/01/18 09:30:41;;;;;;;10.65;8.02;;;4.10;80.70;;;;;;4982563;28;20230;-80
2021/01/18 09:33:10;;;;;;;10.93;7.30;;;4.20;81.40;;;;;;4981572;28;20213;-81
2021/01/18 09:35:38;;;;;;;12.68;7.25;;;4.10;80.60;;;;;;4983860;28;20212;-81
2021/01/18 09:38:06;;;;;;;14.40;7.35;;;4.00;80.60;;;;;;4985137;28;20671;-81
2021/01/18 09:40:34;;;;;;;11.65;7.45;;;4.10;81.00;;;;;;4987309;28;20252;-81
2021/01/18 09:43:01;;;;;;;10.73;7.50;;;4.20;80.80;;;;;;4989167;28;20221;-80
2021/01/18 09:45:28;;;;;;;12.80;7.78;;;4.30;80.80;;;;;;4984706;28;20216;-80
2021/01/18 09:47:59;;;;;;;11.18;6.97;;;4.40;78.80;;;;;;4980211;28;20186;-80
2021/01/18 09:50:26;;;;;;;12.70;8.23;;;4.30;78.20;;;;;;4984679;28;20229;-80
2021/01/18 09:52:54;;;;;;;9.90;7.05;;;4.40;77.50;;;;;;4986021;28;20205;-83
2021/01/18 09:55:24;;;;;;;10.80;7.07;;;4.40;77.10;;;;;;4995286;28;20216;-81
2021/01/18 09:57:55;;;;;;;12.30;7.15;;;4.40;77.10;;;;;;4993953;28;20189;-81
2021/01/18 10:00:22;;;;;;;9.82;6.78;;;4.40;76.30;;;;;;4996690;28;20221;-81
2021/01/18 10:02:51;;;;;;;9.82;7.18;;;4.40;77.00;;;;;;4980781;28;20190;-82
2021/01/18 10:05:30;;;;;;;11.80;7.18;;;4.40;76.90;;;;;;4997876;28;20205;-83
2021/01/18 10:07:59;;;;;;;10.85;6.47;;;4.40;76.00;;;;;;4987487;28;20194;-80
2021/01/18 10:10:25;;;;;;;10.05;6.60;;;4.40;76.30;;;;;;4984880;28;20329;-80
2021/01/18 10:12:54;;;;;;;14.60;7.00;;;4.40;76.30;;;;;;4983581;28;20244;-81
2021/01/18 10:15:25;;;;;;;10.85;6.47;;;4.30;76.60;;;;;;4984683;28;20264;-82
2021/01/18 10:17:52;;;;;;;11.95;7.78;;;4.30;77.40;;;;;;4983764;28;20273;-79
2021/01/18 10:20:28;;;;;;;11.52;7.20;;;4.30;77.30;;;;;;4983417;28;20305;-82
2021/01/18 10:22:56;;;;;;;12.07;7.28;;;4.30;78.00;;;;;;4983301;28;20651;-81
2021/01/18 10:25:27;;;;;;;9.05;6.03;;;4.40;78.60;;;;;;4983031;28;20622;-82
2021/01/18 10:27:56;;;;;;;10.18;6.28;;;4.50;77.50;;;;;;4984876;28;20223;-81
2021/01/18 10:30:25;;;;;;;7.55;5.68;;;4.50;76.80;;;;;;4982521;28;20274;-81
2021/01/18 10:32:53;;;;;;;10.23;6.00;;;4.50;76.00;;;;;;4983618;28;20201;-81
2021/01/18 10:35:29;;;;;;;10.30;6.60;;;4.60;75.40;;;;;;4983228;28;20240;-81
2021/01/18 10:41:05;;;;;;;8.93;6.07;;;4.70;74.60;;;;;;5106310;27;20583;-79
2021/01/18 10:43:31;;;;;;;11.57;6.57;;;4.70;74.30;;;;;;5077132;28;20202;-79
2021/01/18 10:45:58;;;;;;;10.95;6.50;;;4.80;74.00;;;;;;5073900;28;20228;-79
2021/01/18 10:48:30;;;;;;;12.23;7.18;;;4.80;74.30;;;;;;5094430;28;20262;-82
2021/01/18 10:51:01;;;;;;;10.80;6.50;;;4.80;72.90;;;;;;5099155;28;20229;-82
2021/01/18 10:53:29;;;;;;;13.55;6.28;;;4.80;72.80;;;;;;5100791;28;20201;-82
2021/01/18 10:56:14;;;;;;;8.45;6.68;;;4.70;72.80;;;;;;5096937;28;20538;-81
2021/01/18 10:58:41;;;;;;;9.73;6.88;;;4.80;72.80;;;;;;5085484;28;20248;-82
2021/01/18 11:01:09;;;;;;;10.63;7.28;;;4.80;72.80;;;;;;5090164;28;20226;-81
2021/01/18 11:03:37;;;;;;;13.13;6.05;;;4.90;72.20;;;;;;5091850;28;20189;-82
2021/01/18 11:06:11;;;;;;;12.00;6.75;;;4.80;72.80;;;;;;5096861;28;20219;-80
2021/01/18 11:08:38;;;;;;;7.97;6.10;;;4.80;72.40;;;;;;5107658;28;20204;-81
2021/01/18 11:14:28;;;;;;;11.13;6.55;;;4.80;71.60;;;;;;5012452;28;20204;-85
2021/01/18 11:16:59;;;;;;;8.32;6.20;;;4.80;72.00;;;;;;5011833;28;20260;-84
2021/01/18 11:19:26;;;;;;;10.00;6.25;;;4.90;71.90;;;;;;5011488;28;20224;-89
2021/01/18 11:42:29;;;;;;;12.85;6.00;;;5.40;66.50;;;;;;5034847;28;20219;-82
2021/01/18 11:44:55;;;;;;;12.15;6.30;;;5.30;66.90;;;;;;5036858;28;20234;-81
2021/01/18 11:47:21;;;;;;;8.25;5.60;;;5.40;67.10;;;;;;5036384;28;20210;-78
2021/01/18 11:49:48;;;;;;;7.57;5.75;;;5.30;66.10;;;;;;5035384;28;20278;-78
2021/01/18 11:52:14;;;;;;;7.90;5.97;;;5.20;66.70;;;;;;5020852;28;20218;-80
2021/01/18 11:54:41;;;;;;;11.40;6.18;;;5.20;66.30;;;;;;5019186;28;20243;-77
2021/01/18 11:57:07;;;;;;;9.07;6.40;;;5.20;66.90;;;;;;5021269;28;20253;-79
2021/01/18 11:59:35;;;;;;;10.88;6.15;;;5.20;67.50;;;;;;5020075;28;20319;-78
2021/01/18 12:02:01;;;;;;;14.20;6.70;;;5.30;67.20;;;;;;5017878;28;20356;-78
2021/01/18 12:04:28;;;;;;;9.25;6.22;;;5.30;67.30;;;;;;5006839;28;20224;-78
2021/01/18 12:06:54;;;;;;;6.82;5.68;;;5.20;67.30;;;;;;4998036;28;20209;-79
2021/01/18 12:09:20;;;;;;;15.75;7.13;;;5.20;66.90;;;;;;5000084;28;20224;-80
2021/01/18 12:11:47;;;;;;;10.55;6.47;;;5.30;67.00;;;;;;5003726;28;20208;-78
2021/01/18 12:14:14;;;;;;;13.82;7.97;;;5.30;66.90;;;;;;5020081;28;20614;-78
2021/01/18 12:16:41;;;;;;;11.68;7.32;;;5.30;67.60;;;;;;5020225;28;20208;-78
2021/01/18 12:19:09;;;;;;;12.57;7.80;;;5.30;66.90;;;;;;5020835;28;20232;-78
2021/01/18 12:21:42;;;;;;;12.27;7.75;;;5.20;67.30;;;;;;5018029;28;20250;-78
2021/01/18 12:24:09;;;;;;;15.93;8.23;;;5.10;67.80;;;;;;5017298;28;20351;-76
2021/01/18 12:26:35;;;;;;;10.68;7.40;;;5.20;68.00;;;;;;5015962;28;20286;-78
2021/01/18 12:29:02;;;;;;;9.60;6.97;;;5.30;67.40;;;;;;5019872;28;20251;-78
2021/01/18 12:31:28;;;;;;;16.23;7.88;;;5.20;67.90;;;;;;5021220;28;20215;-77
2021/01/18 12:33:56;;;;;;;11.38;7.50;;;5.30;68.00;;;;;;5019704;28;20211;-80
2021/01/18 12:36:22;;;;;;;8.35;6.32;;;5.50;66.50;;;;;;5019739;28;20297;-79
2021/01/18 12:38:48;;;;;;;12.00;7.53;;;5.40;66.30;;;;;;5025201;28;20270;-80
2021/01/18 12:41:15;;;;;;;11.95;6.88;;;5.40;66.20;;;;;;5028888;28;20243;-80
2021/01/18 12:43:42;;;;;;;9.23;6.90;;;5.30;66.30;;;;;;5020149;28;20226;-79
2021/01/18 12:46:08;;;;;;;12.05;7.47;;;5.40;66.30;;;;;;5024673;28;20200;-81
2021/01/18 12:48:34;;;;;;;14.65;7.10;;;5.50;65.60;;;;;;5025214;28;20228;-82
2021/01/18 12:51:02;;;;;;;10.98;7.22;;;5.50;65.60;;;;;;5027210;28;20200;-79
2021/01/18 12:53:44;;;;;;;13.57;7.75;;;5.60;64.80;;;;;;5028919;28;20200;-81
2021/01/18 12:56:12;;;;;;;11.13;6.90;;;5.60;64.80;;;;;;5025496;28;20207;-78
2021/01/18 12:58:38;;;;;;;11.30;7.32;;;5.60;65.40;;;;;;5024666;28;20231;-78
2021/01/18 13:01:05;;;;;;;9.52;6.35;;;5.60;64.80;;;;;;5022342;28;20218;-79
2021/01/18 13:03:31;;;;;;;10.07;6.55;;;5.60;64.90;;;;;;5022465;28;20207;-79
2021/01/18 13:05:58;;;;;;;11.88;6.45;;;5.70;64.90;;;;;;5023594;28;20212;-79
2021/01/18 13:08:25;;;;;;;9.05;6.50;;;5.70;64.90;;;;;;5022415;28;20215;-79
2021/01/18 13:11:00;;;;;;;12.80;7.00;;;5.50;64.70;;;;;;5021011;28;20230;-79
2021/01/18 13:13:26;;;;;;;9.07;6.20;;;5.40;64.70;;;;;;5020423;28;20234;-78
2021/01/18 13:15:52;;;;;;;8.32;6.47;;;5.40;64.70;;;;;;5020705;28;20584;-78
2021/01/18 13:18:19;;;;;;;11.80;7.03;;;5.40;64.80;;;;;;5020332;28;20242;-79
2021/01/18 13:20:46;;;;;;;17.00;7.75;;;5.50;64.80;;;;;;5020022;28;20228;-77
2021/01/18 13:23:12;;;;;;;11.43;6.82;;;5.60;64.90;;;;;;5024015;28;20286;-79
2021/01/18 13:25:39;;;;;;;9.90;6.43;;;5.60;64.90;;;;;;5014405;28;20235;-79
2021/01/18 13:28:06;;;;;;;15.02;6.95;;;5.60;64.80;;;;;;5014961;28;20274;-78
2021/01/18 13:30:32;;;;;;;12.80;6.70;;;5.60;64.80;;;;;;5014618;28;20415;-78
2021/01/18 13:32:58;;;;;;;8.85;6.22;;;5.50;64.10;;;;;;5030318;28;20489;-78
2021/01/18 13:35:25;;;;;;;9.93;6.03;;;5.40;63.80;;;;;;5030784;28;20239;-79
2021/01/18 13:37:54;;;;;;;9.95;6.80;;;5.30;64.60;;;;;;5031975;28;20203;-79
2021/01/18 13:40:21;;;;;;;13.32;7.03;;;5.30;64.60;;;;;;5020260;28;20230;-79
2021/01/18 13:42:49;;;;;;;11.02;6.20;;;5.20;64.50;;;;;;5007315;28;20220;-79
2021/01/18 13:45:15;;;;;;;9.45;6.80;;;5.20;64.50;;;;;;5016001;28;20376;-78
2021/01/18 13:47:42;;;;;;;12.65;6.50;;;5.20;64.50;;;;;;5010410;28;20209;-79
2021/01/18 13:50:10;;;;;;;18.85;8.60;;;5.30;64.60;;;;;;5015088;28;20254;-82